sensor_id;sensor_type;location;lat;lon;timestamp;pressure;altitude;pressure_sealevel;temperature;humidity
71057;BME280;58380;48.312;9.246;2022-09-09T06:40:07;93377.56;;;12.61;97.49
71057;BME280;58380;48.312;9.246;2022-09-09T06:42:33;93347.66;;;12.61;96.84
71057;BME280;58380;48.312;9.246;2022-09-09T06:44:58;93363.63;;;12.80;96.74
71057;BME280;58380;48.312;9.246;2022-09-09T06:47:24;93385.00;;;12.93;96.08
71057;BME280;58380;48.312;9.246;2022-09-09T06:49:49;93341.09;;;12.53;95.90
71057;BME280;58380;48.312;9.246;2022-09-09T06:52:15;93291.91;;;12.07;94.99
71057;BME280;58380;48.312;9.246;2022-09-09T06:54:43;93348.34;;;12.37;95.26
71057;BME280;58380;48.312;9.246;2022-09-09T06:57:10;93356.31;;;12.32;96.12
71057;BME280;58380;48.312;9.246;2022-09-09T06:59:36;93399.22;;;12.68;96.71
71057;BME280;58380;48.312;9.246;2022-09-09T07:02:01;93414.53;;;12.77;97.23
71057;BME280;58380;48.312;9.246;2022-09-09T07:04:26;93426.06;;;12.91;97.09
71057;BME280;58380;48.312;9.246;2022-09-09T07:06:52;93378.22;;;12.77;96.91
71057;BME280;58380;48.312;9.246;2022-09-09T07:09:18;93420.69;;;13.01;96.51
71057;BME280;58380;48.312;9.246;2022-09-09T07:11:48;93392.47;;;12.86;95.49
71057;BME280;58380;48.312;9.246;2022-09-09T07:14:18;93413.31;;;12.98;96.03
71057;BME280;58380;48.312;9.246;2022-09-09T07:16:45;93425.91;;;13.11;95.00
71057;BME280;58380;48.312;9.246;2022-09-09T07:19:11;93422.97;;;13.47;95.24
71057;BME280;58380;48.312;9.246;2022-09-09T07:21:39;93410.47;;;13.53;92.15
71057;BME280;58380;48.312;9.246;2022-09-09T07:24:08;93429.31;;;13.75;94.29
71057;BME280;58380;48.312;9.246;2022-09-09T07:26:35;93420.09;;;13.92;91.88
71057;BME280;58380;48.312;9.246;2022-09-09T07:29:02;93355.66;;;13.67;91.42
71057;BME280;58380;48.312;9.246;2022-09-09T07:31:31;93391.38;;;13.75;90.63
71057;BME280;58380;48.312;9.246;2022-09-09T07:33:59;93375.38;;;13.61;90.87
71057;BME280;58380;48.312;9.246;2022-09-09T07:36:28;93438.63;;;13.97;91.82
71057;BME280;58380;48.312;9.246;2022-09-09T07:38:57;93442.06;;;13.97;93.14
71057;BME280;58380;48.312;9.246;2022-09-09T07:41:31;93368.06;;;13.48;93.51
71057;BME280;58380;48.312;9.246;2022-09-09T07:43:59;93433.44;;;13.87;93.08
71057;BME280;58380;48.312;9.246;2022-09-09T07:46:29;93371.53;;;13.48;93.74
71057;BME280;58380;48.312;9.246;2022-09-09T07:48:56;93395.00;;;13.84;92.58
71057;BME280;58380;48.312;9.246;2022-09-09T07:51:25;93385.78;;;14.00;90.27
71057;BME280;58380;48.312;9.246;2022-09-09T07:54:01;93365.34;;;14.01;89.49
71057;BME280;58380;48.312;9.246;2022-09-09T07:56:30;93450.03;;;14.83;88.38
71057;BME280;58380;48.312;9.246;2022-09-09T07:58:57;93413.41;;;14.61;86.95
71057;BME280;58380;48.312;9.246;2022-09-09T08:01:29;93441.66;;;14.90;88.69
71057;BME280;58380;48.312;9.246;2022-09-09T08:04:17;93430.56;;;14.88;85.79
71057;BME280;58380;48.312;9.246;2022-09-09T08:06:50;93422.53;;;15.07;86.61
71057;BME280;58380;48.312;9.246;2022-09-09T08:09:18;93459.31;;;15.38;87.00
71057;BME280;58380;48.312;9.246;2022-09-09T08:11:44;93451.44;;;15.46;83.36
71057;BME280;58380;48.312;9.246;2022-09-09T08:14:10;93447.94;;;15.32;83.80
71057;BME280;58380;48.312;9.246;2022-09-09T08:16:40;93436.69;;;15.21;83.98
71057;BME280;58380;48.312;9.246;2022-09-09T08:19:08;93465.75;;;15.31;84.58
71057;BME280;58380;48.312;9.246;2022-09-09T08:21:35;93471.88;;;15.32;83.93
71057;BME280;58380;48.312;9.246;2022-09-09T08:24:03;93446.28;;;15.03;83.33
71057;BME280;58380;48.312;9.246;2022-09-09T08:26:32;93451.09;;;14.82;85.08
71057;BME280;58380;48.312;9.246;2022-09-09T08:29:00;93426.88;;;14.65;87.28
71057;BME280;58380;48.312;9.246;2022-09-09T08:31:30;93475.81;;;14.83;85.15
71057;BME280;58380;48.312;9.246;2022-09-09T08:33:58;93483.19;;;14.67;84.36
71057;BME280;58380;48.312;9.246;2022-09-09T08:36:27;93477.84;;;14.48;86.08
71057;BME280;58380;48.312;9.246;2022-09-09T08:38:56;93463.34;;;14.40;85.44
71057;BME280;58380;48.312;9.246;2022-09-09T08:41:44;93479.38;;;14.54;86.13
71057;BME280;58380;48.312;9.246;2022-09-09T08:50:28;93458.41;;;14.72;86.07
71057;BME280;58380;48.312;9.246;2022-09-09T08:53:05;93470.28;;;14.98;86.13
71057;BME280;58380;48.312;9.246;2022-09-09T08:55:47;93428.25;;;14.81;84.57
71057;BME280;58380;48.312;9.246;2022-09-09T08:58:25;93465.31;;;15.10;83.26
71057;BME280;58380;48.312;9.246;2022-09-09T09:11:39;93432.81;;;15.46;82.49
71057;BME280;58380;48.312;9.246;2022-09-09T09:14:18;93435.88;;;15.67;81.01
71057;BME280;58380;48.312;9.246;2022-09-09T09:16:53;93442.06;;;15.82;79.14
71057;BME280;58380;48.312;9.246;2022-09-09T09:19:23;93454.78;;;15.99;79.50
71057;BME280;58380;48.312;9.246;2022-09-09T09:27:13;93437.50;;;16.10;75.63
71057;BME280;58380;48.312;9.246;2022-09-09T09:29:42;93417.41;;;15.90;74.24
71057;BME280;58380;48.312;9.246;2022-09-09T09:32:17;93418.00;;;15.87;75.63
71057;BME280;58380;48.312;9.246;2022-09-09T09:34:55;93423.22;;;15.92;77.67
71057;BME280;58380;48.312;9.246;2022-09-09T09:37:31;93452.31;;;16.16;76.88
71057;BME280;58380;48.312;9.246;2022-09-09T09:40:15;93414.34;;;15.96;73.76
71057;BME280;58380;48.312;9.246;2022-09-09T09:42:57;93422.25;;;16.02;74.33
71057;BME280;58380;48.312;9.246;2022-09-09T09:45:44;93410.41;;;16.08;70.62
71057;BME280;58380;48.312;9.246;2022-09-09T09:48:13;93427.88;;;16.28;68.01
71057;BME280;58380;48.312;9.246;2022-09-09T09:50:54;93428.25;;;16.21;66.95
71057;BME280;58380;48.312;9.246;2022-09-09T09:53:27;93361.91;;;15.83;65.07
71057;BME280;58380;48.312;9.246;2022-09-09T09:55:58;93422.72;;;16.45;65.81
71057;BME280;58380;48.312;9.246;2022-09-09T10:01:33;93433.22;;;16.78;64.15
71057;BME280;58380;48.312;9.246;2022-09-09T10:04:02;93446.56;;;16.78;63.72
71057;BME280;58380;48.312;9.246;2022-09-09T10:06:41;93415.38;;;16.51;64.33
71057;BME280;58380;48.312;9.246;2022-09-09T10:09:26;93448.00;;;16.84;60.48
71057;BME280;58380;48.312;9.246;2022-09-09T10:23:54;93458.25;;;16.91;58.89
71057;BME280;58380;48.312;9.246;2022-09-09T10:29:33;93453.16;;;16.80;60.22
71057;BME280;58380;48.312;9.246;2022-09-09T10:35:12;93453.41;;;16.29;57.77
71057;BME280;58380;48.312;9.246;2022-09-09T10:46:52;93402.34;;;15.85;61.56
71057;BME280;58380;48.312;9.246;2022-09-09T10:50:05;93428.81;;;16.32;61.79
71057;BME280;58380;48.312;9.246;2022-09-09T10:55:45;93425.09;;;16.69;61.03
71057;BME280;58380;48.312;9.246;2022-09-09T10:58:24;93425.28;;;16.87;60.74
71057;BME280;58380;48.312;9.246;2022-09-09T11:00:59;93406.00;;;16.90;59.79
71057;BME280;58380;48.312;9.246;2022-09-09T11:03:29;93394.28;;;16.91;57.99
71057;BME280;58380;48.312;9.246;2022-09-09T11:08:38;93426.16;;;17.41;57.51
71057;BME280;58380;48.312;9.246;2022-09-09T11:11:11;93427.53;;;17.69;58.48
71057;BME280;58380;48.312;9.246;2022-09-09T11:13:53;93391.94;;;17.43;53.37
71057;BME280;58380;48.312;9.246;2022-09-09T11:16:29;93421.47;;;17.46;54.41
71057;BME280;58380;48.312;9.246;2022-09-09T11:21:54;93419.41;;;17.97;51.84
71057;BME280;58380;48.312;9.246;2022-09-09T11:26:58;93408.91;;;17.47;53.97
71057;BME280;58380;48.312;9.246;2022-09-09T11:29:38;93431.84;;;17.48;53.76
71057;BME280;58380;48.312;9.246;2022-09-09T11:38:24;93396.38;;;17.48;52.90
71057;BME280;58380;48.312;9.246;2022-09-09T11:41:11;93401.25;;;17.23;52.15
71057;BME280;58380;48.312;9.246;2022-09-09T11:43:44;93423.06;;;17.48;53.38
71057;BME280;58380;48.312;9.246;2022-09-09T11:46:12;93394.19;;;17.27;54.66
71057;BME280;58380;48.312;9.246;2022-09-09T11:49:00;93361.72;;;17.25;53.10
71057;BME280;58380;48.312;9.246;2022-09-09T11:51:30;93404.78;;;17.95;53.89
71057;BME280;58380;48.312;9.246;2022-09-09T11:53:58;93405.00;;;18.16;52.03
71057;BME280;58380;48.312;9.246;2022-09-09T11:59:03;93401.34;;;18.78;52.54
71057;BME280;58380;48.312;9.246;2022-09-09T12:01:33;93394.28;;;18.90;50.71
71057;BME280;58380;48.312;9.246;2022-09-09T12:06:58;93392.00;;;19.36;50.03
71057;BME280;58380;48.312;9.246;2022-09-09T12:09:48;93391.84;;;19.50;48.95
71057;BME280;58380;48.312;9.246;2022-09-09T12:17:42;93378.06;;;18.95;50.43
71057;BME280;58380;48.312;9.246;2022-09-09T12:20:37;93385.91;;;18.66;49.68
71057;BME280;58380;48.312;9.246;2022-09-09T12:23:06;93382.44;;;18.65;48.89
71057;BME280;58380;48.312;9.246;2022-09-09T12:25:56;93357.72;;;18.33;49.25
71057;BME280;58380;48.312;9.246;2022-09-09T12:31:12;93369.72;;;19.06;46.30
71057;BME280;58380;48.312;9.246;2022-09-09T12:33:45;93356.19;;;18.93;49.00
71057;BME280;58380;48.312;9.246;2022-09-09T12:36:19;93350.78;;;19.28;48.74
71057;BME280;58380;48.312;9.246;2022-09-09T12:38:49;93350.88;;;19.49;44.02
71057;BME280;58380;48.312;9.246;2022-09-09T12:41:25;93321.53;;;19.61;48.37
71057;BME280;58380;48.312;9.246;2022-09-09T12:44:06;93356.47;;;20.12;42.44
71057;BME280;58380;48.312;9.246;2022-09-09T12:46:44;93373.34;;;19.74;42.56
71057;BME280;58380;48.312;9.246;2022-09-09T12:49:26;93373.66;;;19.17;43.77
71057;BME280;58380;48.312;9.246;2022-09-09T12:51:52;93354.09;;;18.29;46.46
71057;BME280;58380;48.312;9.246;2022-09-09T12:54:19;93328.91;;;17.96;49.73
71057;BME280;58380;48.312;9.246;2022-09-09T12:56:46;93376.38;;;18.07;52.32
71057;BME280;58380;48.312;9.246;2022-09-09T12:59:34;93381.13;;;18.28;54.74
71057;BME280;58380;48.312;9.246;2022-09-09T13:02:25;93385.25;;;18.69;54.69
71057;BME280;58380;48.312;9.246;2022-09-09T13:04:52;93385.78;;;18.88;54.04
71057;BME280;58380;48.312;9.246;2022-09-09T13:07:19;93352.53;;;18.28;54.44
71057;BME280;58380;48.312;9.246;2022-09-09T13:09:48;93389.31;;;18.31;56.26
71057;BME280;58380;48.312;9.246;2022-09-09T13:12:18;93324.94;;;17.84;56.28
71057;BME280;58380;48.312;9.246;2022-09-09T13:14:47;93332.97;;;18.02;56.40
71057;BME280;58380;48.312;9.246;2022-09-09T13:17:21;93377.66;;;18.19;55.66
71057;BME280;58380;48.312;9.246;2022-09-09T13:19:50;93341.28;;;17.83;56.52
71057;BME280;58380;48.312;9.246;2022-09-09T13:22:24;93336.63;;;18.06;55.63
71057;BME280;58380;48.312;9.246;2022-09-09T13:25:04;93367.94;;;18.40;54.08
71057;BME280;58380;48.312;9.246;2022-09-09T13:27:50;93369.81;;;18.22;55.68
71057;BME280;58380;48.312;9.246;2022-09-09T13:30:25;93371.81;;;18.17;53.86
71057;BME280;58380;48.312;9.246;2022-09-09T13:33:42;93351.72;;;18.10;54.59
71057;BME280;58380;48.312;9.246;2022-09-09T13:35:58;93368.84;;;18.27;54.31
71057;BME280;58380;48.312;9.246;2022-09-09T13:38:29;93369.97;;;18.26;53.87
71057;BME280;58380;48.312;9.246;2022-09-09T13:41:05;93355.47;;;18.09;55.71
71057;BME280;58380;48.312;9.246;2022-09-09T13:43:44;93352.00;;;18.09;53.50
71057;BME280;58380;48.312;9.246;2022-09-09T13:49:00;93362.72;;;18.18;52.79
71057;BME280;58380;48.312;9.246;2022-09-09T13:51:33;93366.03;;;18.32;53.89
71057;BME280;58380;48.312;9.246;2022-09-09T13:54:00;93323.28;;;18.23;51.23
71057;BME280;58380;48.312;9.246;2022-09-09T13:56:26;93344.69;;;18.41;52.07
71057;BME280;58380;48.312;9.246;2022-09-09T13:58:52;93330.06;;;18.56;50.54
71057;BME280;58380;48.312;9.246;2022-09-09T14:01:17;93304.91;;;18.39;49.94
71057;BME280;58380;48.312;9.246;2022-09-09T14:03:43;93328.63;;;18.32;48.95
71057;BME280;58380;48.312;9.246;2022-09-09T14:06:10;93364.63;;;18.26;48.75
71057;BME280;58380;48.312;9.246;2022-09-09T14:08:36;93349.34;;;18.00;50.83
71057;BME280;58380;48.312;9.246;2022-09-09T14:11:05;93336.91;;;17.96;51.69
71057;BME280;58380;48.312;9.246;2022-09-09T14:13:32;93339.72;;;17.91;51.40
71057;BME280;58380;48.312;9.246;2022-09-09T14:15:57;93299.88;;;17.72;50.79
71057;BME280;58380;48.312;9.246;2022-09-09T14:18:23;93356.00;;;18.38;53.93
71057;BME280;58380;48.312;9.246;2022-09-09T14:20:50;93328.81;;;18.53;48.84
71057;BME280;58380;48.312;9.246;2022-09-09T14:23:16;93327.09;;;18.40;49.79
71057;BME280;58380;48.312;9.246;2022-09-09T14:25:42;93344.50;;;18.28;50.21
71057;BME280;58380;48.312;9.246;2022-09-09T14:28:10;93349.63;;;17.99;50.40
71057;BME280;58380;48.312;9.246;2022-09-09T14:30:39;93359.53;;;17.98;51.92
71057;BME280;58380;48.312;9.246;2022-09-09T14:33:06;93359.13;;;18.22;51.54
71057;BME280;58380;48.312;9.246;2022-09-09T14:35:33;93356.31;;;18.36;51.45
71057;BME280;58380;48.312;9.246;2022-09-09T14:37:59;93362.56;;;18.23;50.95
71057;BME280;58380;48.312;9.246;2022-09-09T14:40:26;93379.06;;;18.16;51.78
71057;BME280;58380;48.312;9.246;2022-09-09T14:42:52;93349.13;;;17.88;50.13
71057;BME280;58380;48.312;9.246;2022-09-09T14:45:18;93380.25;;;17.93;50.39
71057;BME280;58380;48.312;9.246;2022-09-09T14:47:46;93385.25;;;17.85;50.05
71057;BME280;58380;48.312;9.246;2022-09-09T14:50:12;93330.75;;;17.86;50.86
71057;BME280;58380;48.312;9.246;2022-09-09T14:52:37;93344.22;;;18.56;49.33
71057;BME280;58380;48.312;9.246;2022-09-09T14:55:03;93345.50;;;18.85;48.81
71057;BME280;58380;48.312;9.246;2022-09-09T14:57:29;93340.16;;;18.76;49.59
71057;BME280;58380;48.312;9.246;2022-09-09T14:59:55;93352.69;;;18.67;48.02
71057;BME280;58380;48.312;9.246;2022-09-09T15:02:21;93341.56;;;18.47;49.02
71057;BME280;58380;48.312;9.246;2022-09-09T15:04:47;93323.28;;;18.32;48.70
71057;BME280;58380;48.312;9.246;2022-09-09T15:07:15;93370.63;;;18.49;48.63
71057;BME280;58380;48.312;9.246;2022-09-09T15:09:41;93345.91;;;18.17;49.91
71057;BME280;58380;48.312;9.246;2022-09-09T15:12:07;93361.91;;;18.08;50.68
71057;BME280;58380;48.312;9.246;2022-09-09T15:14:33;93378.72;;;18.00;51.18
71057;BME280;58380;48.312;9.246;2022-09-09T15:17:00;93382.44;;;17.91;51.99
71057;BME280;58380;48.312;9.246;2022-09-09T15:19:26;93360.56;;;17.49;50.57
71057;BME280;58380;48.312;9.246;2022-09-09T15:21:51;93337.84;;;17.20;51.02
71057;BME280;58380;48.312;9.246;2022-09-09T15:24:17;93353.00;;;17.11;52.13
71057;BME280;58380;48.312;9.246;2022-09-09T15:26:42;93343.66;;;16.99;51.94
71057;BME280;58380;48.312;9.246;2022-09-09T15:29:08;93354.53;;;17.03;51.40
71057;BME280;58380;48.312;9.246;2022-09-09T15:31:34;93396.53;;;17.20;52.51
71057;BME280;58380;48.312;9.246;2022-09-09T15:34:05;93389.72;;;17.14;52.83
71057;BME280;58380;48.312;9.246;2022-09-09T15:36:45;93389.31;;;16.98;51.60
71057;BME280;58380;48.312;9.246;2022-09-09T15:39:15;93398.13;;;16.85;50.16
71057;BME280;58380;48.312;9.246;2022-09-09T15:41:46;93383.25;;;16.70;52.57
71057;BME280;58380;48.312;9.246;2022-09-09T15:44:12;93327.25;;;16.47;53.00
71057;BME280;58380;48.312;9.246;2022-09-09T15:46:39;93387.19;;;16.72;56.41
71057;BME280;58380;48.312;9.246;2022-09-09T15:49:21;93364.16;;;16.90;58.30
71057;BME280;58380;48.312;9.246;2022-09-09T15:51:56;93372.97;;;17.22;55.42
71057;BME280;58380;48.312;9.246;2022-09-09T15:54:24;93337.47;;;16.68;54.10
71057;BME280;58380;48.312;9.246;2022-09-09T15:56:53;93321.91;;;16.61;55.77
71057;BME280;58380;48.312;9.246;2022-09-09T15:59:22;93337.97;;;16.92;54.46
71057;BME280;58380;48.312;9.246;2022-09-09T16:01:48;93338.75;;;17.15;53.41
71057;BME280;58380;48.312;9.246;2022-09-09T16:04:17;93350.25;;;17.24;53.54
71057;BME280;58380;48.312;9.246;2022-09-09T16:06:49;93334.19;;;17.16;51.01
71057;BME280;58380;48.312;9.246;2022-09-09T16:09:20;93379.59;;;17.56;50.72
71057;BME280;58380;48.312;9.246;2022-09-09T16:11:46;93378.91;;;17.73;48.86
71057;BME280;58380;48.312;9.246;2022-09-09T16:14:12;93362.47;;;17.57;50.31
71057;BME280;58380;48.312;9.246;2022-09-09T16:16:40;93374.31;;;17.33;49.06
71057;BME280;58380;48.312;9.246;2022-09-09T16:19:09;93373.53;;;17.33;50.42
71057;BME280;58380;48.312;9.246;2022-09-09T16:21:38;93397.63;;;17.50;50.54
71057;BME280;58380;48.312;9.246;2022-09-09T16:24:07;93389.34;;;17.29;49.78
71057;BME280;58380;48.312;9.246;2022-09-09T16:26:35;93383.13;;;17.11;50.44
71057;BME280;58380;48.312;9.246;2022-09-09T16:29:03;93372.63;;;16.92;51.30
71057;BME280;58380;48.312;9.246;2022-09-09T16:31:29;93396.63;;;16.92;51.79
71057;BME280;58380;48.312;9.246;2022-09-09T16:33:57;93323.75;;;16.38;52.46
71057;BME280;58380;48.312;9.246;2022-09-09T16:36:25;93374.41;;;16.60;52.34
71057;BME280;58380;48.312;9.246;2022-09-09T16:38:55;93411.59;;;16.79;52.90
71057;BME280;58380;48.312;9.246;2022-09-09T16:41:22;93335.81;;;16.22;54.09
71057;BME280;58380;48.312;9.246;2022-09-09T16:43:52;93414.28;;;16.66;53.80
71057;BME280;58380;48.312;9.246;2022-09-09T16:46:19;93367.38;;;16.28;54.64
71057;BME280;58380;48.312;9.246;2022-09-09T16:48:45;93411.94;;;16.50;54.92
71057;BME280;58380;48.312;9.246;2022-09-09T16:51:20;93416.00;;;16.34;55.17
71057;BME280;58380;48.312;9.246;2022-09-09T16:53:54;93380.16;;;16.04;55.68
71057;BME280;58380;48.312;9.246;2022-09-09T16:56:25;93400.94;;;16.02;55.84
71057;BME280;58380;48.312;9.246;2022-09-09T16:58:54;93382.81;;;15.90;55.83
71057;BME280;58380;48.312;9.246;2022-09-09T17:01:25;93370.97;;;15.68;56.72
71057;BME280;58380;48.312;9.246;2022-09-09T17:03:53;93430.16;;;15.93;56.75
71057;BME280;58380;48.312;9.246;2022-09-09T17:06:18;93396.50;;;15.69;57.14
71057;BME280;58380;48.312;9.246;2022-09-09T17:08:44;93410.31;;;15.71;57.88
71057;BME280;58380;48.312;9.246;2022-09-09T17:11:14;93407.50;;;15.49;58.98
71057;BME280;58380;48.312;9.246;2022-09-09T17:13:42;93425.34;;;15.62;59.19
71057;BME280;58380;48.312;9.246;2022-09-09T17:16:09;93428.59;;;15.59;59.24
71057;BME280;58380;48.312;9.246;2022-09-09T17:18:35;93389.50;;;15.27;59.32
71057;BME280;58380;48.312;9.246;2022-09-09T17:21:07;93425.59;;;15.47;58.62
71057;BME280;58380;48.312;9.246;2022-09-09T17:23:35;93421.75;;;15.39;62.21
71057;BME280;58380;48.312;9.246;2022-09-09T17:26:04;93404.69;;;15.26;61.38
71057;BME280;58380;48.312;9.246;2022-09-09T17:28:33;93426.38;;;15.34;62.95
71057;BME280;58380;48.312;9.246;2022-09-09T17:31:04;93411.84;;;15.12;62.27
71057;BME280;58380;48.312;9.246;2022-09-09T17:33:36;93444.66;;;15.21;62.08
71057;BME280;58380;48.312;9.246;2022-09-09T17:36:31;93446.53;;;15.21;60.48
71057;BME280;58380;48.312;9.246;2022-09-09T17:38:59;93452.13;;;15.19;61.63
71057;BME280;58380;48.312;9.246;2022-09-09T17:41:29;93449.03;;;15.12;61.86
71057;BME280;58380;48.312;9.246;2022-09-09T17:43:56;93395.44;;;14.72;62.48
71057;BME280;58380;48.312;9.246;2022-09-09T17:48:56;93472.16;;;14.98;64.30
71057;BME280;58380;48.312;9.246;2022-09-09T17:51:26;93408.75;;;14.53;64.29
71057;BME280;58380;48.312;9.246;2022-09-09T17:53:56;93456.34;;;14.69;64.86
71057;BME280;58380;48.312;9.246;2022-09-09T17:56:24;93395.28;;;14.26;66.59
71057;BME280;58380;48.312;9.246;2022-09-09T17:58:51;93467.56;;;14.65;66.79
71057;BME280;58380;48.312;9.246;2022-09-09T18:01:23;93414.41;;;14.22;64.30
71057;BME280;58380;48.312;9.246;2022-09-09T18:03:52;93467.03;;;14.63;65.29
71057;BME280;58380;48.312;9.246;2022-09-09T18:06:24;93453.50;;;14.41;64.57
71057;BME280;58380;48.312;9.246;2022-09-09T18:08:56;93478.31;;;14.55;63.56
71057;BME280;58380;48.312;9.246;2022-09-09T18:11:26;93473.41;;;14.62;63.93
71057;BME280;58380;48.312;9.246;2022-09-09T18:13:56;93430.72;;;14.35;65.25
71057;BME280;58380;48.312;9.246;2022-09-09T18:16:28;93426.22;;;14.35;64.04
71057;BME280;58380;48.312;9.246;2022-09-09T18:18:56;93453.94;;;14.48;63.78
71057;BME280;58380;48.312;9.246;2022-09-09T18:21:29;93394.16;;;14.08;64.36
71057;BME280;58380;48.312;9.246;2022-09-09T18:24:04;93474.16;;;14.68;64.33
71057;BME280;58380;48.312;9.246;2022-09-09T18:26:32;93491.31;;;14.76;64.30
71057;BME280;58380;48.312;9.246;2022-09-09T18:29:01;93437.25;;;14.42;65.54
71057;BME280;58380;48.312;9.246;2022-09-09T18:31:29;93469.28;;;14.51;65.74
71057;BME280;58380;48.312;9.246;2022-09-09T18:33:57;93469.84;;;14.53;63.92
71057;BME280;58380;48.312;9.246;2022-09-09T18:36:27;93496.09;;;14.55;65.93
71057;BME280;58380;48.312;9.246;2022-09-09T18:38:55;93479.75;;;14.42;66.80
71057;BME280;58380;48.312;9.246;2022-09-09T18:41:27;93475.31;;;14.38;67.67
71057;BME280;58380;48.312;9.246;2022-09-09T18:43:58;93459.84;;;14.21;68.24
71057;BME280;58380;48.312;9.246;2022-09-09T18:46:26;93423.53;;;13.92;67.38
71057;BME280;58380;48.312;9.246;2022-09-09T18:48:52;93480.97;;;14.07;68.29
71057;BME280;58380;48.312;9.246;2022-09-09T18:51:22;93436.88;;;13.63;68.80
71057;BME280;58380;48.312;9.246;2022-09-09T18:54:33;93450.63;;;13.65;70.02
71057;BME280;58380;48.312;9.246;2022-09-09T18:56:44;93477.38;;;13.69;69.30
71057;BME280;58380;48.312;9.246;2022-09-09T18:59:12;93487.50;;;13.67;70.00
71057;BME280;58380;48.312;9.246;2022-09-09T19:01:41;93485.97;;;13.61;71.87
71057;BME280;58380;48.312;9.246;2022-09-09T19:04:07;93458.13;;;13.29;69.75
71057;BME280;58380;48.312;9.246;2022-09-09T19:06:37;93489.81;;;13.44;70.54
71057;BME280;58380;48.312;9.246;2022-09-09T19:09:07;93454.53;;;13.09;70.69
71057;BME280;58380;48.312;9.246;2022-09-09T19:11:37;93503.38;;;13.37;72.16
71057;BME280;58380;48.312;9.246;2022-09-09T19:14:04;93476.31;;;13.06;72.19
71057;BME280;58380;48.312;9.246;2022-09-09T19:16:35;93487.38;;;13.13;71.98
71057;BME280;58380;48.312;9.246;2022-09-09T19:19:07;93486.66;;;13.03;71.67
71057;BME280;58380;48.312;9.246;2022-09-09T19:21:37;93506.72;;;13.14;72.44
71057;BME280;58380;48.312;9.246;2022-09-09T19:24:05;93517.59;;;13.12;73.70
71057;BME280;58380;48.312;9.246;2022-09-09T19:26:41;93525.31;;;13.09;74.09
71057;BME280;58380;48.312;9.246;2022-09-09T19:29:15;93531.94;;;13.06;73.89
71057;BME280;58380;48.312;9.246;2022-09-09T19:31:44;93527.53;;;12.91;75.64
71057;BME280;58380;48.312;9.246;2022-09-09T19:34:11;93525.72;;;12.82;75.98
71057;BME280;58380;48.312;9.246;2022-09-09T19:36:37;93508.06;;;12.67;76.56
71057;BME280;58380;48.312;9.246;2022-09-09T19:39:04;93518.63;;;12.72;76.50
71057;BME280;58380;48.312;9.246;2022-09-09T19:41:31;93511.00;;;12.60;76.47
71057;BME280;58380;48.312;9.246;2022-09-09T19:43:59;93530.34;;;12.61;76.28
71057;BME280;58380;48.312;9.246;2022-09-09T19:46:30;93541.97;;;12.65;76.51
71057;BME280;58380;48.312;9.246;2022-09-09T19:48:58;93507.94;;;12.38;76.76
71057;BME280;58380;48.312;9.246;2022-09-09T19:51:26;93538.34;;;12.50;77.79
71057;BME280;58380;48.312;9.246;2022-09-09T19:54:02;93541.50;;;12.47;77.64
71057;BME280;58380;48.312;9.246;2022-09-09T19:56:32;93539.19;;;12.36;78.82
71057;BME280;58380;48.312;9.246;2022-09-09T19:58:59;93546.13;;;12.21;79.05
71057;BME280;58380;48.312;9.246;2022-09-09T20:01:25;93539.53;;;12.08;79.58
71057;BME280;58380;48.312;9.246;2022-09-09T20:03:54;93549.63;;;12.01;79.65
71057;BME280;58380;48.312;9.246;2022-09-09T20:06:24;93516.06;;;11.71;80.17
71057;BME280;58380;48.312;9.246;2022-09-09T20:08:52;93530.06;;;11.72;80.75
71057;BME280;58380;48.312;9.246;2022-09-09T20:11:18;93539.84;;;11.76;81.52
71057;BME280;58380;48.312;9.246;2022-09-09T20:13:45;93515.25;;;11.60;81.37
71057;BME280;58380;48.312;9.246;2022-09-09T20:16:17;93536.13;;;11.72;81.61
71057;BME280;58380;48.312;9.246;2022-09-09T20:18:46;93482.00;;;11.29;81.62
71057;BME280;58380;48.312;9.246;2022-09-09T20:21:19;93554.41;;;11.63;82.45
71057;BME280;58380;48.312;9.246;2022-09-09T20:23:48;93548.31;;;11.58;82.86
71057;BME280;58380;48.312;9.246;2022-09-09T20:26:17;93487.78;;;11.20;82.51
71057;BME280;58380;48.312;9.246;2022-09-09T20:28:46;93549.38;;;11.52;82.83
71057;BME280;58380;48.312;9.246;2022-09-09T20:31:17;93552.56;;;11.43;82.37
71057;BME280;58380;48.312;9.246;2022-09-09T20:33:55;93520.31;;;11.21;82.27
71057;BME280;58380;48.312;9.246;2022-09-09T20:38:57;93565.47;;;11.30;83.22
71057;BME280;58380;48.312;9.246;2022-09-09T20:41:29;93562.06;;;11.19;84.12
71057;BME280;58380;48.312;9.246;2022-09-09T20:44:07;93525.81;;;10.94;84.19
71057;BME280;58380;48.312;9.246;2022-09-09T20:46:38;93508.88;;;10.74;83.92
71057;BME280;58380;48.312;9.246;2022-09-09T20:49:06;93462.38;;;10.48;84.16
71057;BME280;58380;48.312;9.246;2022-09-09T20:51:34;93547.75;;;10.94;84.62
71057;BME280;58380;48.312;9.246;2022-09-09T20:54:04;93563.84;;;11.03;84.93
71057;BME280;58380;48.312;9.246;2022-09-09T20:56:33;93535.06;;;10.81;85.38
71057;BME280;58380;48.312;9.246;2022-09-09T20:59:05;93556.69;;;10.83;85.20
71057;BME280;58380;48.312;9.246;2022-09-09T21:01:34;93547.94;;;10.72;84.87
71057;BME280;58380;48.312;9.246;2022-09-09T21:04:00;93564.09;;;10.81;84.83
71057;BME280;58380;48.312;9.246;2022-09-09T21:06:25;93571.72;;;10.77;85.33
71057;BME280;58380;48.312;9.246;2022-09-09T21:08:51;93559.03;;;10.64;85.45
71057;BME280;58380;48.312;9.246;2022-09-09T21:11:16;93565.63;;;10.62;85.92
71057;BME280;58380;48.312;9.246;2022-09-09T21:13:43;93577.28;;;10.76;86.39
71057;BME280;58380;48.312;9.246;2022-09-09T21:16:12;93572.25;;;10.69;86.62
71057;BME280;58380;48.312;9.246;2022-09-09T21:18:40;93580.16;;;10.74;86.69
71057;BME280;58380;48.312;9.246;2022-09-09T21:21:07;93568.78;;;10.64;86.57
71057;BME280;58380;48.312;9.246;2022-09-09T21:23:33;93570.91;;;10.62;87.34
71057;BME280;58380;48.312;9.246;2022-09-09T21:26:00;93592.56;;;10.64;88.54
71057;BME280;58380;48.312;9.246;2022-09-09T21:28:26;93585.69;;;10.68;88.13